Time;durP1;ratioP1;P1;durP2;ratioP2;P2;SDS_P1;SDS_P2;PMS_P1;PMS_P2;Temp;Humidity;BMP_temperature;BMP_pressure;BME280_temperature;BME280_humidity;BME280_pressure;Samples;Min_cycle;Max_cycle;Signal;HPM_P1;HPM_P2
2021/12/10 00:00:30;;;;;;;41.67;22.50;;;3.50;99.90;;;;;;5039644;28;20043;-80
2021/12/10 00:02:56;;;;;;;38.88;21.63;;;3.50;99.90;;;;;;5039055;28;20025;-80
2021/12/10 00:05:27;;;;;;;36.83;22.00;;;3.50;99.90;;;;;;5039743;28;20064;-80
2021/12/10 00:07:55;;;;;;;36.25;20.52;;;3.50;99.90;;;;;;5038258;28;20044;-80
2021/12/10 00:10:30;;;;;;;35.88;21.33;;;3.50;99.90;;;;;;5021352;28;20025;-80
2021/12/10 00:12:57;;;;;;;35.63;20.13;;;3.50;99.90;;;;;;5039469;28;20024;-80
2021/12/10 00:15:27;;;;;;;32.38;19.42;;;3.40;99.90;;;;;;5039051;28;20334;-80
2021/12/10 00:17:55;;;;;;;41.60;25.13;;;3.50;99.90;;;;;;5039436;28;20032;-80
2021/12/10 00:20:25;;;;;;;45.38;26.33;;;5.00;99.90;;;;;;5039980;28;20108;-80
2021/12/10 00:22:57;;;;;;;54.75;30.13;;;3.50;99.90;;;;;;5041602;28;20290;-80
2021/12/10 00:25:38;;;;;;;49.25;26.65;;;3.50;99.90;;;;;;5041310;28;20317;-80
2021/12/10 00:28:17;;;;;;;44.35;24.95;;;3.50;99.90;;;;;;5041614;28;20073;-79
2021/12/10 00:34:08;;;;;;;51.55;26.33;;;3.50;99.90;;;;;;4979886;28;20547;-80
2021/12/10 00:36:36;;;;;;;51.75;25.75;;;3.50;99.90;;;;;;4979419;28;20027;-80
2021/12/10 00:39:05;;;;;;;37.88;20.67;;;3.40;99.90;;;;;;4979461;28;20050;-80
2021/12/10 00:41:31;;;;;;;34.55;19.63;;;3.50;99.90;;;;;;4979167;28;20729;-81
2021/12/10 00:43:57;;;;;;;35.17;19.90;;;3.50;99.90;;;;;;4979484;28;20031;-80
2021/12/10 00:46:23;;;;;;;35.63;20.25;;;3.50;99.90;;;;;;4979281;28;20109;-80
2021/12/10 00:48:49;;;;;;;34.25;19.33;;;3.50;99.90;;;;;;4979917;28;20029;-80
2021/12/10 00:51:15;;;;;;;31.05;18.42;;;3.50;99.90;;;;;;4980073;28;20038;-80
2021/12/10 00:53:43;;;;;;;35.22;20.67;;;3.50;99.90;;;;;;4979771;28;20026;-80
2021/12/10 00:56:09;;;;;;;46.75;25.65;;;3.50;99.90;;;;;;4979402;28;20069;-80
2021/12/10 00:58:38;;;;;;;91.07;42.40;;;4.20;99.90;;;;;;4979573;28;20394;-80
2021/12/10 01:01:07;;;;;;;67.07;34.20;;;3.50;99.90;;;;;;4979172;28;20038;-80
2021/12/10 01:03:37;;;;;;;70.32;37.10;;;3.50;99.90;;;;;;4979328;28;20336;-80
2021/12/10 01:06:07;;;;;;;70.30;36.42;;;3.50;99.90;;;;;;4979397;28;20793;-80
2021/12/10 01:08:35;;;;;;;68.88;37.72;;;3.50;99.90;;;;;;4978955;28;20027;-80
2021/12/10 01:11:12;;;;;;;71.55;38.72;;;3.60;99.90;;;;;;5031305;28;20025;-80
2021/12/10 01:13:41;;;;;;;69.40;37.83;;;3.60;99.90;;;;;;5041629;28;20021;-81
2021/12/10 01:25:13;;;;;;;81.93;42.65;;;3.70;99.90;;;;;;5041770;28;20044;-79
2021/12/10 01:27:25;;;;;;;77.20;41.25;;;3.60;99.90;;;;;;5030071;28;20614;-79
2021/12/10 01:29:56;;;;;;;61.80;33.20;;;3.60;99.90;;;;;;5040883;28;20029;-78
2021/12/10 01:32:25;;;;;;;56.90;31.35;;;3.60;99.90;;;;;;5041074;28;20025;-78
2021/12/10 01:34:52;;;;;;;57.75;30.95;;;3.60;99.90;;;;;;5040703;28;20210;-79
2021/12/10 01:37:17;;;;;;;51.75;29.67;;;3.60;99.90;;;;;;5023867;28;20542;-78
2021/12/10 01:39:44;;;;;;;47.25;26.30;;;3.60;99.90;;;;;;5040246;28;20116;-78
2021/12/10 01:42:27;;;;;;;30.92;19.13;;;4.10;99.90;;;;;;5039059;28;20330;-78
2021/12/10 01:44:56;;;;;;;29.58;17.95;;;3.50;99.90;;;;;;5040283;28;20035;-78
2021/12/10 01:47:29;;;;;;;30.05;17.15;;;3.40;99.90;;;;;;5040439;28;20511;-78
2021/12/10 01:49:55;;;;;;;24.10;15.48;;;3.40;99.90;;;;;;5040315;28;20028;-78
2021/12/10 01:52:21;;;;;;;25.40;15.73;;;3.30;99.90;;;;;;5040392;28;20098;-79
2021/12/10 01:54:52;;;;;;;24.70;14.70;;;3.30;99.90;;;;;;5039737;28;20057;-78
2021/12/10 01:57:22;;;;;;;25.45;14.45;;;3.30;99.90;;;;;;5040080;28;20087;-77
2021/12/10 01:59:48;;;;;;;22.20;14.60;;;3.10;99.90;;;;;;5039738;28;20021;-78
2021/12/10 02:02:20;;;;;;;20.77;13.40;;;3.10;99.90;;;;;;5039589;28;20337;-78
2021/12/10 02:04:47;;;;;;;22.30;14.13;;;3.10;99.90;;;;;;5039594;28;20021;-79
2021/12/10 02:07:15;;;;;;;24.85;14.32;;;3.10;99.90;;;;;;5039890;28;20124;-78
2021/12/10 02:09:41;;;;;;;22.95;14.52;;;3.40;99.90;;;;;;5022256;28;20029;-79
2021/12/10 02:12:07;;;;;;;21.52;13.95;;;3.90;99.90;;;;;;5039829;28;20404;-78
2021/12/10 02:14:33;;;;;;;22.13;14.20;;;2.30;99.90;;;;;;5039685;28;20057;-78
2021/12/10 02:17:00;;;;;;;246.30;85.57;;;3.10;99.90;;;;;;5039692;28;20448;-78
2021/12/10 02:19:27;;;;;;;36.80;18.55;;;3.10;99.90;;;;;;5039212;28;20017;-78
2021/12/10 02:21:54;;;;;;;21.50;13.32;;;3.10;99.90;;;;;;5039284;28;20065;-78
2021/12/10 02:24:20;;;;;;;20.15;13.23;;;3.10;99.90;;;;;;5039954;28;20017;-77
2021/12/10 02:26:50;;;;;;;18.73;12.48;;;3.10;99.90;;;;;;5039665;28;20569;-77
2021/12/10 02:29:19;;;;;;;21.42;12.95;;;3.10;99.90;;;;;;5039725;28;20442;-77
2021/12/10 02:31:45;;;;;;;19.92;13.00;;;3.10;99.90;;;;;;5040103;28;20044;-77
2021/12/10 02:34:12;;;;;;;21.05;13.48;;;3.10;99.90;;;;;;5040111;28;20553;-76
2021/12/10 02:36:41;;;;;;;30.10;17.98;;;3.10;99.90;;;;;;5040630;28;20233;-78
2021/12/10 02:39:12;;;;;;;481.20;205.90;;;3.00;99.90;;;;;;5040311;28;20036;-77
2021/12/10 02:41:39;;;;;;;356.30;152.23;;;3.00;99.90;;;;;;5040178;28;20025;-77
2021/12/10 02:44:06;;;;;;;128.02;56.55;;;2.90;99.90;;;;;;5039852;28;20241;-79
2021/12/10 02:46:32;;;;;;;62.83;31.80;;;2.90;99.90;;;;;;5040794;28;20022;-78
2021/12/10 02:48:58;;;;;;;43.75;25.08;;;2.90;99.90;;;;;;5040249;28;20491;-77
2021/12/10 02:51:25;;;;;;;30.38;18.13;;;2.90;99.90;;;;;;5040671;28;20187;-79
2021/12/10 02:53:51;;;;;;;26.42;16.95;;;2.70;99.90;;;;;;5039503;28;20232;-78
2021/12/10 02:56:20;;;;;;;38.83;20.88;;;3.00;99.90;;;;;;5040176;28;20017;-78
2021/12/10 02:58:49;;;;;;;35.22;20.67;;;2.90;99.90;;;;;;5040356;28;20535;-77
2021/12/10 03:01:26;;;;;;;34.10;20.77;;;2.90;99.90;;;;;;5040351;28;20033;-78
2021/12/10 03:03:52;;;;;;;30.23;18.35;;;2.90;99.90;;;;;;5040859;28;20061;-78
2021/12/10 03:06:18;;;;;;;49.30;28.15;;;2.90;99.90;;;;;;5041023;28;20440;-78
2021/12/10 03:08:47;;;;;;;43.08;25.58;;;2.90;99.90;;;;;;5041205;28;20263;-78
2021/12/10 03:11:17;;;;;;;33.85;21.17;;;2.90;99.90;;;;;;5040650;28;20339;-77
2021/12/10 03:13:42;;;;;;;31.33;19.10;;;3.30;99.90;;;;;;5040687;28;20483;-79
2021/12/10 03:16:09;;;;;;;27.50;17.23;;;2.90;99.90;;;;;;5040963;28;20032;-78
2021/12/10 03:18:36;;;;;;;30.23;19.20;;;3.00;99.90;;;;;;5041413;28;20546;-78
2021/12/10 03:21:05;;;;;;;29.15;19.05;;;2.90;99.90;;;;;;5042071;28;20498;-78
2021/12/10 03:23:30;;;;;;;28.70;17.90;;;2.90;99.90;;;;;;5040313;28;20112;-79
2021/12/10 03:25:56;;;;;;;29.27;18.50;;;2.80;99.90;;;;;;5039668;28;20218;-78
2021/12/10 03:28:22;;;;;;;28.60;18.05;;;2.80;99.90;;;;;;5038504;28;20033;-78
2021/12/10 03:30:51;;;;;;;25.77;16.60;;;2.80;99.90;;;;;;5038604;28;20663;-79
2021/12/10 03:33:17;;;;;;;26.77;16.63;;;2.80;99.90;;;;;;5038306;28;20124;-78
2021/12/10 03:35:46;;;;;;;27.20;18.13;;;2.80;99.90;;;;;;5038631;28;20671;-79
2021/12/10 03:38:18;;;;;;;26.92;17.83;;;2.80;99.90;;;;;;5037762;28;20067;-79
2021/12/10 03:40:44;;;;;;;29.27;18.80;;;2.80;99.90;;;;;;5037514;28;20676;-78
2021/12/10 03:43:11;;;;;;;27.88;17.80;;;2.80;99.90;;;;;;5038009;28;20403;-79
2021/12/10 03:45:41;;;;;;;28.45;17.80;;;3.30;99.90;;;;;;5037675;28;20056;-79
2021/12/10 03:48:15;;;;;;;22.45;14.60;;;2.90;99.90;;;;;;5037981;28;20029;-78
2021/12/10 03:50:42;;;;;;;23.52;13.93;;;2.80;99.90;;;;;;5040792;28;20044;-80
2021/12/10 03:53:08;;;;;;;26.52;15.27;;;2.80;99.90;;;;;;5043123;28;20080;-79
2021/12/10 03:55:35;;;;;;;24.02;14.25;;;2.80;99.90;;;;;;5043772;28;20353;-79
2021/12/10 03:58:01;;;;;;;25.25;15.82;;;2.70;99.90;;;;;;5020994;28;20056;-79
2021/12/10 04:00:32;;;;;;;28.02;16.80;;;2.70;99.90;;;;;;5037775;28;20310;-79
2021/12/10 04:03:00;;;;;;;31.30;18.70;;;2.70;99.90;;;;;;5020104;28;20036;-79
2021/12/10 04:05:26;;;;;;;28.67;18.52;;;2.70;99.90;;;;;;5037744;28;20018;-79
2021/12/10 04:07:53;;;;;;;32.05;19.60;;;2.60;99.90;;;;;;5038241;28;20017;-79
2021/12/10 04:10:21;;;;;;;30.33;18.75;;;2.60;99.90;;;;;;5019925;28;20025;-79
2021/12/10 04:12:46;;;;;;;32.53;19.45;;;2.60;99.90;;;;;;5038177;28;20271;-79
2021/12/10 04:15:17;;;;;;;32.50;19.70;;;2.50;99.90;;;;;;5038597;28;20049;-79
2021/12/10 04:17:43;;;;;;;32.80;19.65;;;3.30;99.90;;;;;;5037791;28;20021;-79
2021/12/10 04:20:10;;;;;;;33.83;20.35;;;2.60;99.90;;;;;;5037610;28;20017;-79
2021/12/10 04:22:35;;;;;;;33.13;19.27;;;2.70;99.90;;;;;;5037613;28;20044;-79
2021/12/10 04:25:05;;;;;;;30.23;18.25;;;2.60;99.90;;;;;;5037507;28;20206;-79
2021/12/10 04:27:32;;;;;;;33.30;18.63;;;2.60;99.90;;;;;;5037956;28;20356;-79
2021/12/10 04:29:58;;;;;;;32.67;19.33;;;2.70;99.90;;;;;;5037823;28;20510;-79
2021/12/10 04:32:27;;;;;;;29.80;17.67;;;2.60;99.90;;;;;;5038208;28;20051;-79
2021/12/10 04:34:53;;;;;;;33.83;18.25;;;2.60;99.90;;;;;;5038268;28;20029;-79
2021/12/10 04:37:19;;;;;;;29.98;17.55;;;2.70;99.90;;;;;;5038025;28;20281;-79
2021/12/10 04:39:47;;;;;;;25.23;15.50;;;2.70;99.90;;;;;;5037823;28;20049;-79
2021/12/10 04:42:16;;;;;;;24.20;15.07;;;2.70;99.90;;;;;;5020470;28;20072;-79
2021/12/10 04:44:42;;;;;;;24.55;15.52;;;2.70;99.90;;;;;;5038510;28;20021;-79
2021/12/10 04:47:09;;;;;;;27.00;16.55;;;2.70;99.90;;;;;;5037975;28;20567;-79
2021/12/10 04:49:35;;;;;;;24.35;14.73;;;2.80;99.90;;;;;;5038275;28;20214;-79
2021/12/10 04:52:02;;;;;;;26.38;15.43;;;2.80;99.90;;;;;;5038435;28;20068;-79
2021/12/10 04:54:28;;;;;;;29.80;17.33;;;2.80;99.90;;;;;;5039553;28;20206;-79
2021/12/10 04:56:58;;;;;;;26.90;16.52;;;2.90;99.90;;;;;;5040041;28;20123;-80
2021/12/10 04:59:27;;;;;;;28.27;17.02;;;2.90;99.90;;;;;;5039023;28;20019;-79
2021/12/10 05:01:54;;;;;;;30.27;17.45;;;3.00;99.90;;;;;;5040383;28;20322;-79
2021/12/10 05:04:21;;;;;;;32.78;19.17;;;3.90;99.90;;;;;;5040406;28;20472;-79
2021/12/10 05:06:47;;;;;;;38.13;20.67;;;3.00;99.90;;;;;;5039542;28;20112;-79
2021/12/10 05:09:13;;;;;;;39.17;22.15;;;3.00;99.90;;;;;;5039221;28;20402;-79
2021/12/10 05:11:39;;;;;;;50.03;26.50;;;3.00;99.90;;;;;;5038224;28;20096;-80
2021/12/10 05:14:06;;;;;;;42.47;24.00;;;3.00;99.90;;;;;;5037134;28;20032;-80
2021/12/10 05:16:34;;;;;;;42.28;23.48;;;3.00;99.90;;;;;;5038594;28;20075;-80
2021/12/10 05:19:01;;;;;;;45.33;24.27;;;3.00;99.90;;;;;;5040982;28;20549;-79
2021/12/10 05:21:29;;;;;;;43.72;24.65;;;2.90;99.90;;;;;;5040122;28;20029;-80
2021/12/10 05:23:56;;;;;;;43.88;24.50;;;2.90;99.90;;;;;;5022417;28;20021;-80
2021/12/10 05:26:21;;;;;;;40.90;24.00;;;2.80;99.90;;;;;;5040258;28;20083;-80
2021/12/10 05:28:47;;;;;;;38.88;22.10;;;2.80;99.90;;;;;;5040256;28;20451;-79
2021/12/10 05:31:13;;;;;;;38.85;22.92;;;2.80;99.90;;;;;;5040015;28;20120;-80
2021/12/10 05:33:39;;;;;;;41.42;24.60;;;2.70;99.90;;;;;;5040194;28;20029;-79
2021/12/10 05:36:07;;;;;;;40.88;23.55;;;3.00;99.90;;;;;;5040604;28;20100;-80
2021/12/10 05:38:33;;;;;;;33.78;20.55;;;3.10;99.90;;;;;;5040068;28;20044;-80
2021/12/10 05:41:02;;;;;;;36.28;20.92;;;2.90;99.90;;;;;;5052338;28;20037;-82
2021/12/10 05:43:27;;;;;;;33.92;21.30;;;2.90;99.90;;;;;;5036160;28;20083;-78
2021/12/10 05:45:54;;;;;;;39.55;22.13;;;2.90;99.90;;;;;;5041232;28;20021;-79
2021/12/10 05:48:20;;;;;;;45.95;24.98;;;3.00;99.90;;;;;;5041013;28;20024;-80
2021/12/10 05:50:47;;;;;;;42.28;24.33;;;3.00;99.90;;;;;;5042455;28;20021;-80
2021/12/10 05:53:13;;;;;;;41.40;22.92;;;3.00;99.90;;;;;;5041173;28;20317;-81
2021/12/10 05:55:41;;;;;;;38.25;22.60;;;3.00;99.90;;;;;;5041494;28;20411;-80
2021/12/10 05:58:07;;;;;;;39.65;22.42;;;3.00;99.90;;;;;;5023109;28;20585;-79
2021/12/10 06:00:47;;;;;;;39.97;22.85;;;2.90;99.90;;;;;;5040397;28;20021;-80
2021/12/10 06:03:13;;;;;;;57.65;31.02;;;3.50;99.90;;;;;;5040742;28;20106;-80
2021/12/10 06:05:41;;;;;;;62.22;33.17;;;3.00;99.90;;;;;;5023204;28;20464;-80
2021/12/10 06:08:07;;;;;;;59.55;31.77;;;4.10;99.90;;;;;;5041400;28;20087;-81
2021/12/10 06:10:34;;;;;;;67.90;34.70;;;3.40;99.90;;;;;;5041505;28;20503;-80
2021/12/10 06:13:01;;;;;;;58.60;30.73;;;3.10;99.90;;;;;;5026780;28;20056;-80
2021/12/10 06:15:27;;;;;;;56.33;29.63;;;3.20;99.90;;;;;;5041840;28;20025;-80
2021/12/10 06:17:53;;;;;;;60.13;29.77;;;4.30;99.90;;;;;;5022995;28;20632;-81
2021/12/10 06:20:24;;;;;;;54.35;27.88;;;3.20;99.90;;;;;;5023048;28;20253;-80
2021/12/10 06:22:51;;;;;;;50.47;26.17;;;3.20;99.90;;;;;;5040045;28;20052;-80
2021/12/10 06:25:17;;;;;;;44.70;25.00;;;3.20;99.90;;;;;;5040244;28;20021;-80
2021/12/10 06:27:46;;;;;;;51.55;26.55;;;3.30;99.90;;;;;;5039951;28;20094;-80
2021/12/10 06:30:15;;;;;;;49.95;26.50;;;3.40;99.90;;;;;;5040034;28;20013;-81
2021/12/10 06:32:45;;;;;;;48.95;27.42;;;3.40;99.90;;;;;;5039896;28;20419;-80
2021/12/10 06:35:12;;;;;;;49.70;29.27;;;3.40;99.90;;;;;;5040026;28;20357;-80
2021/12/10 06:37:39;;;;;;;55.92;31.48;;;3.40;99.90;;;;;;5040284;28;20103;-80
2021/12/10 06:40:10;;;;;;;53.40;31.13;;;3.40;99.90;;;;;;5039911;28;20037;-81
2021/12/10 06:42:36;;;;;;;52.13;30.67;;;3.40;99.90;;;;;;5039770;28;20128;-80
2021/12/10 06:45:08;;;;;;;49.35;29.20;;;3.40;99.90;;;;;;5039434;28;20092;-80
2021/12/10 06:47:35;;;;;;;49.10;27.52;;;3.40;99.90;;;;;;5021751;28;20026;-80
2021/12/10 06:50:02;;;;;;;46.28;27.95;;;3.50;99.90;;;;;;5021691;28;20029;-80
2021/12/10 06:52:28;;;;;;;48.30;29.33;;;3.50;99.90;;;;;;5039922;28;20086;-81
2021/12/10 06:54:54;;;;;;;49.45;28.45;;;3.50;99.90;;;;;;5039873;28;20261;-80
2021/12/10 06:57:20;;;;;;;48.30;26.33;;;3.50;99.90;;;;;;5039904;28;20044;-81
2021/12/10 06:59:46;;;;;;;42.92;25.83;;;3.40;99.90;;;;;;5040976;28;20113;-80
2021/12/10 07:02:14;;;;;;;48.90;28.30;;;3.40;99.90;;;;;;5022082;28;20700;-81
2021/12/10 07:04:41;;;;;;;48.70;27.42;;;3.50;99.90;;;;;;5040375;28;20033;-80
2021/12/10 07:07:11;;;;;;;44.65;24.98;;;3.50;99.90;;;;;;5022135;28;20203;-81
2021/12/10 07:09:38;;;;;;;42.63;24.75;;;3.50;99.90;;;;;;5022123;28;20029;-81
2021/12/10 07:12:07;;;;;;;50.17;27.85;;;3.50;99.90;;;;;;5039987;28;20112;-81
2021/12/10 07:14:33;;;;;;;51.92;28.67;;;3.60;99.90;;;;;;5022207;28;20021;-81
2021/12/10 07:17:00;;;;;;;56.58;28.40;;;3.60;99.90;;;;;;5040924;28;20024;-81
2021/12/10 07:19:28;;;;;;;47.95;26.15;;;3.70;99.90;;;;;;5040212;28;20036;-81
2021/12/10 07:21:55;;;;;;;42.72;23.98;;;3.70;99.90;;;;;;5039622;28;20353;-81
2021/12/10 07:24:21;;;;;;;39.58;23.10;;;4.40;99.90;;;;;;5021333;28;20206;-81
2021/12/10 07:26:48;;;;;;;35.13;19.73;;;3.70;99.90;;;;;;5004733;28;20024;-81
2021/12/10 07:29:14;;;;;;;35.67;21.80;;;3.90;99.90;;;;;;5039367;28;20196;-80
2021/12/10 07:31:43;;;;;;;46.45;24.65;;;3.90;99.90;;;;;;5038468;28;20229;-81
2021/12/10 07:34:11;;;;;;;57.40;30.45;;;4.00;99.90;;;;;;5038854;28;20048;-81
2021/12/10 07:36:38;;;;;;;64.35;33.70;;;4.00;99.90;;;;;;5020706;28;20052;-81
2021/12/10 07:39:05;;;;;;;61.13;33.53;;;4.00;99.90;;;;;;5038397;28;20709;-81
2021/12/10 07:41:31;;;;;;;47.53;26.27;;;4.10;99.90;;;;;;5039134;28;20037;-80
2021/12/10 07:43:56;;;;;;;44.72;24.50;;;4.20;99.90;;;;;;5021478;28;20048;-81
2021/12/10 07:46:28;;;;;;;40.65;23.80;;;4.20;99.90;;;;;;5039598;28;20025;-80
2021/12/10 07:48:54;;;;;;;49.30;26.90;;;4.20;99.80;;;;;;5039104;28;20017;-81
2021/12/10 07:51:25;;;;;;;60.92;34.42;;;4.30;99.40;;;;;;5020829;28;20120;-81
2021/12/10 07:53:54;;;;;;;54.97;31.60;;;4.30;99.30;;;;;;5021047;28;20265;-81
2021/12/10 07:56:20;;;;;;;40.00;23.42;;;4.30;99.40;;;;;;5039105;28;20483;-81
2021/12/10 07:58:46;;;;;;;44.72;25.95;;;4.40;99.10;;;;;;5038673;28;20051;-81
2021/12/10 08:01:17;;;;;;;64.50;32.88;;;4.30;99.50;;;;;;5039259;28;20033;-81
2021/12/10 08:03:45;;;;;;;67.53;35.75;;;4.20;99.90;;;;;;5039468;28;20711;-81
2021/12/10 08:06:11;;;;;;;70.65;37.95;;;4.00;99.90;;;;;;5039441;28;20322;-81
2021/12/10 08:08:37;;;;;;;74.50;40.33;;;3.50;99.90;;;;;;5022065;28;20326;-81
2021/12/10 08:11:04;;;;;;;79.22;41.00;;;4.00;99.90;;;;;;5040421;28;20431;-81
2021/12/10 08:13:29;;;;;;;82.15;42.75;;;4.00;99.90;;;;;;5040181;28;20028;-81
2021/12/10 08:15:55;;;;;;;94.53;46.67;;;4.00;99.90;;;;;;5040495;28;20021;-81
2021/12/10 08:18:21;;;;;;;82.93;44.05;;;4.00;99.90;;;;;;5022843;28;20111;-81
2021/12/10 08:20:49;;;;;;;90.05;46.17;;;3.90;99.90;;;;;;5023001;28;20509;-81
2021/12/10 08:23:15;;;;;;;79.60;40.83;;;4.00;99.90;;;;;;5041501;28;20022;-81
2021/12/10 08:25:42;;;;;;;75.47;40.30;;;3.00;99.90;;;;;;5040214;28;20026;-81
2021/12/10 08:28:07;;;;;;;86.00;43.92;;;3.90;99.90;;;;;;5022427;28;20798;-81
2021/12/10 08:30:36;;;;;;;86.97;43.47;;;3.80;99.90;;;;;;5021771;28;20334;-82
2021/12/10 08:33:02;;;;;;;80.85;42.80;;;3.80;99.90;;;;;;5043253;28;20020;-81
2021/12/10 08:35:31;;;;;;;82.28;41.80;;;3.80;99.90;;;;;;5046495;28;20033;-82
2021/12/10 08:38:01;;;;;;;83.32;42.67;;;3.70;99.90;;;;;;5044503;28;20277;-82
2021/12/10 08:40:38;;;;;;;81.30;41.72;;;3.80;99.90;;;;;;5046020;28;20025;-82
2021/12/10 08:43:04;;;;;;;80.97;41.33;;;3.80;99.90;;;;;;5026005;28;20247;-81
2021/12/10 08:45:36;;;;;;;82.03;42.58;;;3.90;99.90;;;;;;5053758;28;20017;-81
2021/12/10 08:48:03;;;;;;;92.93;45.45;;;3.90;99.90;;;;;;5050017;28;20079;-81
2021/12/10 08:50:30;;;;;;;82.88;43.53;;;3.70;99.90;;;;;;5048289;28;20672;-82
2021/12/10 08:53:02;;;;;;;87.10;43.47;;;3.70;99.90;;;;;;5049555;28;20106;-82
2021/12/10 08:55:31;;;;;;;88.82;44.10;;;3.70;99.90;;;;;;5050600;28;20111;-81
2021/12/10 08:57:57;;;;;;;84.43;43.25;;;3.80;99.90;;;;;;5049657;28;20048;-81
2021/12/10 09:00:24;;;;;;;88.90;45.13;;;3.80;99.90;;;;;;5028894;28;20053;-81
2021/12/10 09:02:53;;;;;;;97.85;47.03;;;3.80;99.90;;;;;;5046680;28;20108;-81
2021/12/10 09:05:20;;;;;;;88.70;45.30;;;3.80;99.90;;;;;;5029209;28;20770;-81
2021/12/10 09:07:47;;;;;;;98.40;47.58;;;3.80;99.90;;;;;;5046784;28;20021;-81
2021/12/10 09:10:17;;;;;;;103.68;50.53;;;3.90;99.90;;;;;;5046350;28;20222;-81
2021/12/10 09:12:43;;;;;;;107.22;48.70;;;3.90;99.90;;;;;;5044963;28;20014;-81
2021/12/10 09:15:20;;;;;;;100.45;47.38;;;4.00;99.90;;;;;;5028846;28;20563;-82
2021/12/10 09:17:47;;;;;;;91.93;45.58;;;4.00;99.90;;;;;;5047263;28;20009;-82
2021/12/10 09:20:22;;;;;;;87.50;44.83;;;4.00;99.90;;;;;;5046583;28;20022;-81
2021/12/10 09:22:48;;;;;;;87.03;43.38;;;4.00;99.90;;;;;;5046304;28;20032;-81
2021/12/10 09:25:16;;;;;;;87.95;43.42;;;4.00;99.90;;;;;;5046809;28;20063;-81
2021/12/10 09:27:43;;;;;;;104.00;50.10;;;4.20;99.90;;;;;;5046884;28;20024;-81
2021/12/10 09:30:12;;;;;;;94.65;45.90;;;4.20;99.90;;;;;;5045434;28;20021;-82
2021/12/10 09:32:39;;;;;;;98.75;47.53;;;4.40;99.90;;;;;;5028855;28;20033;-81
2021/12/10 09:35:09;;;;;;;90.47;44.03;;;4.40;99.90;;;;;;5031027;28;20124;-82
2021/12/10 09:37:38;;;;;;;72.78;38.33;;;4.50;99.90;;;;;;5043723;28;20075;-82
2021/12/10 09:40:07;;;;;;;85.78;44.00;;;4.50;99.60;;;;;;5042615;28;20037;-82
2021/12/10 09:42:33;;;;;;;80.22;39.22;;;4.50;99.70;;;;;;5043608;28;20040;-82
2021/12/10 09:44:59;;;;;;;72.32;36.88;;;4.60;99.40;;;;;;5044969;28;20013;-82
2021/12/10 09:47:25;;;;;;;73.70;37.92;;;4.80;99.20;;;;;;5052342;28;20103;-83
2021/12/10 09:49:58;;;;;;;77.28;40.03;;;4.70;99.20;;;;;;5052012;28;20013;-81
2021/12/10 09:52:28;;;;;;;73.13;38.15;;;4.70;99.10;;;;;;5035294;28;20032;-81
2021/12/10 09:54:55;;;;;;;70.00;35.25;;;4.70;99.10;;;;;;5057374;28;20075;-83
2021/12/10 09:57:29;;;;;;;74.18;37.40;;;4.80;99.20;;;;;;5034310;28;20013;-81
2021/12/10 09:59:57;;;;;;;68.40;33.80;;;4.80;99.00;;;;;;5028416;28;20021;-81
2021/12/10 10:02:24;;;;;;;74.55;36.90;;;4.90;99.00;;;;;;5042409;28;20095;-81
2021/12/10 10:04:51;;;;;;;76.30;39.47;;;4.90;98.80;;;;;;5045904;28;20499;-81
2021/12/10 10:07:23;;;;;;;77.75;38.50;;;4.90;98.60;;;;;;5026090;28;20039;-82
2021/12/10 10:09:52;;;;;;;75.53;38.55;;;4.90;98.50;;;;;;5044877;28;20017;-81
2021/12/10 10:12:23;;;;;;;80.07;37.42;;;5.00;98.30;;;;;;5025239;28;20033;-80
2021/12/10 10:14:50;;;;;;;69.28;35.38;;;5.00;98.30;;;;;;5041962;28;20116;-81
2021/12/10 10:17:17;;;;;;;82.53;42.92;;;5.10;98.50;;;;;;5023403;28;20036;-80
2021/12/10 10:19:43;;;;;;;92.28;45.05;;;5.10;98.60;;;;;;5041757;28;20051;-80
2021/12/10 10:22:15;;;;;;;89.65;45.75;;;5.20;98.60;;;;;;5041893;28;20025;-81
2021/12/10 10:24:42;;;;;;;92.43;46.47;;;5.40;98.70;;;;;;5044158;28;20021;-80
2021/12/10 10:27:13;;;;;;;97.70;46.58;;;5.50;98.70;;;;;;5024026;28;20580;-80
2021/12/10 10:29:44;;;;;;;85.95;42.95;;;5.60;98.40;;;;;;5024483;28;20025;-82
2021/12/10 10:32:15;;;;;;;79.68;41.78;;;5.80;98.30;;;;;;5041979;28;20305;-81
2021/12/10 10:34:54;;;;;;;81.30;40.58;;;5.90;97.80;;;;;;5025124;28;20111;-81
2021/12/10 10:37:21;;;;;;;85.22;42.50;;;6.10;97.60;;;;;;5042071;28;20284;-81
2021/12/10 10:39:48;;;;;;;91.35;48.78;;;6.40;97.20;;;;;;5041563;28;20045;-81
2021/12/10 10:42:24;;;;;;;92.05;45.85;;;6.50;96.80;;;;;;5042027;28;20609;-81
2021/12/10 10:44:50;;;;;;;116.80;63.08;;;6.80;96.30;;;;;;5025035;28;20691;-82
2021/12/10 10:47:16;;;;;;;81.70;44.78;;;6.90;95.40;;;;;;5040926;28;20064;-81
2021/12/10 10:49:46;;;;;;;76.25;41.42;;;7.00;95.50;;;;;;5040605;28;20160;-82
2021/12/10 10:52:29;;;;;;;127.93;67.45;;;7.10;95.00;;;;;;5042660;28;20526;-82
2021/12/10 10:54:59;;;;;;;95.47;53.40;;;7.30;94.80;;;;;;5025472;28;20029;-81
2021/12/10 10:57:31;;;;;;;63.42;34.08;;;7.30;95.00;;;;;;5043806;28;20028;-81
2021/12/10 11:00:10;;;;;;;57.83;32.15;;;7.20;94.30;;;;;;5029645;28;20095;-81
2021/12/10 11:02:58;;;;;;;52.60;30.85;;;7.10;94.20;;;;;;5033921;28;20435;-81
2021/12/10 11:05:27;;;;;;;44.42;24.48;;;7.00;94.80;;;;;;5061655;28;20108;-82
2021/12/10 11:07:59;;;;;;;110.20;46.40;;;4.40;94.10;;;;;;5031511;28;20068;-82
2021/12/10 11:10:33;;;;;;;229.27;86.25;;;6.80;95.30;;;;;;5028063;28;20028;-81
2021/12/10 11:13:19;;;;;;;146.68;58.88;;;6.80;95.30;;;;;;5048677;28;20020;-82
2021/12/10 11:15:57;;;;;;;;;;;6.80;94.60;;;;;;5049646;28;20028;-81
2021/12/10 11:18:23;;;;;;;105.72;45.28;;;6.80;95.30;;;;;;5045849;28;19908;-82
2021/12/10 11:20:49;;;;;;;649.97;280.05;;;6.70;95.20;;;;;;5044346;28;20180;-82
2021/12/10 11:23:16;;;;;;;112.65;46.92;;;6.90;94.90;;;;;;5028858;28;20056;-81
2021/12/10 11:25:48;;;;;;;109.28;43.75;;;6.90;94.60;;;;;;5051806;28;20538;-82
2021/12/10 11:28:24;;;;;;;38.72;20.70;;;6.90;94.90;;;;;;5026113;28;20111;-82
2021/12/10 11:31:10;;;;;;;176.60;61.22;;;7.10;94.60;;;;;;5044912;28;20051;-82
2021/12/10 11:33:43;;;;;;;82.00;33.45;;;7.30;93.80;;;;;;5026734;28;20313;-82
2021/12/10 11:36:14;;;;;;;61.28;31.83;;;7.30;93.60;;;;;;5048258;28;20017;-82
2021/12/10 11:38:41;;;;;;;64.85;35.08;;;7.00;94.20;;;;;;5045159;28;20119;-81
2021/12/10 11:41:27;;;;;;;63.08;34.90;;;6.80;95.30;;;;;;5046104;28;20040;-82
2021/12/10 11:44:20;;;;;;;;;;;6.70;95.40;;;;;;5030872;28;20582;-82
2021/12/10 11:49:39;;;;;;;53.40;30.23;;;6.90;94.90;;;;;;5047879;28;20032;-81
2021/12/10 11:52:13;;;;;;;53.28;29.67;;;6.70;95.10;;;;;;5030827;28;20464;-82
2021/12/10 11:54:43;;;;;;;482.55;160.07;;;6.80;95.60;;;;;;5051365;28;20021;-81
2021/12/10 11:57:13;;;;;;;92.95;40.15;;;6.80;95.20;;;;;;5044482;28;20048;-82
2021/12/10 11:59:45;;;;;;;58.53;29.70;;;7.00;94.60;;;;;;5043919;28;20029;-82
2021/12/10 12:02:17;;;;;;;109.10;44.95;;;7.10;94.70;;;;;;5027461;28;20431;-82
2021/12/10 12:04:50;;;;;;;59.47;30.98;;;7.20;94.40;;;;;;5049591;28;20025;-82
2021/12/10 12:07:21;;;;;;;51.47;29.35;;;7.40;93.90;;;;;;5034818;28;20033;-82
2021/12/10 12:09:55;;;;;;;52.00;28.48;;;7.40;93.30;;;;;;5048335;28;20322;-82
2021/12/10 12:12:26;;;;;;;51.70;28.75;;;7.60;93.10;;;;;;5050195;28;20048;-81
2021/12/10 12:15:02;;;;;;;52.38;26.92;;;7.90;93.60;;;;;;5051816;28;20072;-83
2021/12/10 12:17:35;;;;;;;64.07;34.28;;;8.20;92.80;;;;;;5050896;28;20025;-81
2021/12/10 12:20:09;;;;;;;61.83;31.73;;;8.40;92.20;;;;;;5049089;28;20049;-81
2021/12/10 12:25:37;;;;;;;53.38;28.55;;;8.70;91.30;;;;;;4983486;28;20017;-81
2021/12/10 12:28:10;;;;;;;47.65;25.88;;;8.70;91.60;;;;;;4987548;28;20045;-82
2021/12/10 12:30:55;;;;;;;46.58;27.10;;;8.80;90.90;;;;;;4989211;28;20042;-82
2021/12/10 12:33:21;;;;;;;51.05;27.52;;;8.80;91.00;;;;;;4985376;28;20093;-81
2021/12/10 12:35:48;;;;;;;52.58;30.27;;;8.70;90.60;;;;;;4984412;28;20054;-81
2021/12/10 12:38:23;;;;;;;49.03;28.05;;;8.60;90.40;;;;;;4966671;28;20104;-81
2021/12/10 12:41:08;;;;;;;50.05;27.52;;;8.50;90.40;;;;;;4981264;28;20030;-81
2021/12/10 12:43:36;;;;;;;41.78;24.13;;;8.30;90.80;;;;;;4965441;28;20645;-81
2021/12/10 12:46:05;;;;;;;40.08;21.90;;;8.30;90.90;;;;;;4965735;28;20227;-81
2021/12/10 12:48:32;;;;;;;39.90;22.45;;;8.30;91.00;;;;;;4964634;28;20061;-80
2021/12/10 12:51:02;;;;;;;51.25;27.75;;;8.30;91.60;;;;;;4981263;28;20034;-81
2021/12/10 12:53:33;;;;;;;55.08;29.77;;;8.40;91.50;;;;;;4965839;28;20054;-81
2021/12/10 12:56:11;;;;;;;56.95;33.30;;;8.40;91.60;;;;;;4982531;28;20034;-80
2021/12/10 12:59:02;;;;;;;60.95;33.97;;;8.10;91.30;;;;;;4984809;28;20031;-81
2021/12/10 13:01:34;;;;;;;60.03;33.42;;;7.80;92.10;;;;;;5024535;28;20044;-81